createdAt,value
2019-04-30T00:00:38.177Z,3.00
2019-04-30T00:03:22.632Z,1.60
2019-04-30T00:05:53.795Z,1.53
2019-04-30T00:08:25.591Z,1.87
2019-04-30T00:10:55.499Z,1.43
2019-04-30T00:13:25.888Z,9.50
2019-04-30T00:15:58.766Z,7.33
2019-04-30T00:18:30.773Z,2.30
2019-04-30T00:20:58.262Z,1.20
2019-04-30T00:23:30.678Z,3.00
2019-04-30T00:26:04.987Z,1.03
2019-04-30T00:28:30.588Z,15.17
2019-04-30T00:31:00.336Z,1.33
2019-04-30T00:33:29.930Z,0.30
2019-04-30T00:35:59.539Z,0.27
2019-04-30T00:38:29.583Z,0.20
2019-04-30T00:41:01.885Z,0.23
2019-04-30T00:43:31.826Z,0.30
2019-04-30T00:46:01.585Z,0.40
2019-04-30T00:48:31.384Z,3.83
2019-04-30T00:51:00.963Z,0.40
2019-04-30T00:53:30.559Z,0.30
2019-04-30T00:56:00.293Z,1.80
2019-04-30T00:58:30.401Z,0.50
2019-04-30T01:01:04.868Z,0.33
2019-04-30T01:03:35.217Z,0.30
2019-04-30T01:06:05.383Z,0.33
2019-04-30T01:08:35.845Z,1.77
2019-04-30T01:11:09.423Z,4.30
2019-04-30T01:13:38.911Z,5.87
2019-04-30T01:16:09.894Z,3.07
2019-04-30T01:18:39.519Z,4.60
2019-04-30T01:21:11.219Z,1.03
2019-04-30T01:23:47.879Z,5.20
2019-04-30T01:26:12.384Z,1.90
2019-04-30T01:28:42.192Z,0.80
2019-04-30T01:31:11.784Z,0.60
2019-04-30T01:33:41.383Z,0.30
2019-04-30T01:36:13.333Z,0.30
2019-04-30T01:38:44.791Z,0.30
2019-04-30T01:41:13.749Z,0.33
2019-04-30T01:43:43.344Z,0.30
2019-04-30T01:46:13.974Z,0.20
2019-04-30T01:48:47.988Z,0.30
2019-04-30T01:51:20.407Z,0.20
2019-04-30T01:53:46.431Z,0.40
2019-04-30T01:56:25.277Z,0.30
2019-04-30T01:59:02.237Z,0.30
2019-04-30T02:01:36.459Z,0.20
2019-04-30T02:04:06.089Z,0.27
2019-04-30T02:06:35.674Z,0.40
2019-04-30T02:09:09.097Z,0.20
2019-04-30T02:11:38.932Z,0.40
2019-04-30T02:14:09.055Z,0.40
2019-04-30T02:16:39.569Z,0.50
2019-04-30T02:19:09.256Z,0.30
2019-04-30T02:21:38.869Z,0.30
2019-04-30T02:24:08.950Z,0.30
2019-04-30T02:26:39.816Z,0.40
2019-04-30T02:29:09.399Z,0.30
2019-04-30T02:31:40.744Z,0.20
2019-04-30T02:34:12.120Z,0.30
2019-04-30T02:36:43.381Z,0.20
2019-04-30T02:39:12.971Z,0.30
2019-04-30T02:41:44.307Z,0.30
2019-04-30T02:44:15.609Z,0.20
2019-04-30T02:46:47.066Z,0.50
2019-04-30T02:49:20.417Z,0.20
2019-04-30T02:51:52.580Z,0.20
2019-04-30T02:54:29.451Z,0.23
2019-04-30T02:56:59.845Z,0.40
2019-04-30T02:59:30.010Z,0.20
2019-04-30T03:02:00.060Z,0.20
2019-04-30T03:04:29.726Z,0.30
2019-04-30T03:06:59.956Z,0.20
2019-04-30T03:09:29.909Z,0.27
2019-04-30T03:12:00.325Z,0.30
2019-04-30T03:14:30.349Z,0.20
2019-04-30T03:17:01.613Z,0.23
2019-04-30T03:19:41.892Z,0.20
2019-04-30T03:22:13.156Z,0.20
2019-04-30T03:24:43.179Z,0.20
2019-04-30T03:27:12.862Z,0.20
2019-04-30T03:29:42.487Z,0.30
2019-04-30T03:32:13.733Z,0.27
2019-04-30T03:34:43.503Z,0.30
2019-04-30T03:37:13.091Z,0.20
2019-04-30T03:39:42.672Z,0.30
2019-04-30T03:42:12.364Z,0.20
2019-04-30T03:44:42.279Z,0.40
2019-04-30T03:47:11.906Z,0.20
2019-04-30T03:49:41.527Z,0.37
2019-04-30T03:52:13.429Z,0.40
2019-04-30T03:54:42.551Z,0.43
2019-04-30T03:57:12.136Z,0.20
2019-04-30T03:59:41.875Z,0.30
2019-04-30T04:02:25.078Z,0.30
2019-04-30T04:05:12.465Z,0.30
2019-04-30T04:07:49.833Z,0.40
2019-04-30T04:10:23.087Z,0.30
2019-04-30T04:12:52.775Z,0.30
2019-04-30T04:15:22.385Z,0.40
2019-04-30T04:17:51.965Z,0.30
2019-04-30T04:20:21.571Z,0.37
2019-04-30T04:22:51.199Z,0.40
2019-04-30T04:25:20.930Z,0.40
2019-04-30T04:27:51.127Z,0.40
2019-04-30T04:30:22.368Z,0.70
2019-04-30T04:32:52.026Z,0.60
2019-04-30T04:35:21.615Z,0.90
2019-04-30T04:37:51.304Z,1.10
2019-04-30T04:40:21.352Z,0.97
2019-04-30T04:42:51.050Z,0.90
2019-04-30T04:45:20.714Z,0.73
2019-04-30T04:47:50.723Z,0.60
2019-04-30T04:50:20.569Z,0.60
2019-04-30T04:52:50.176Z,0.70
2019-04-30T04:55:22.102Z,0.60
2019-04-30T04:57:51.132Z,1.00
2019-04-30T05:00:21.085Z,1.00
2019-04-30T05:02:52.452Z,1.03
2019-04-30T05:05:22.084Z,0.73
2019-04-30T05:07:51.714Z,0.60
2019-04-30T05:10:21.342Z,0.50
2019-04-30T05:12:51.156Z,0.60
2019-04-30T05:15:20.747Z,0.40
2019-04-30T05:17:50.367Z,0.20
2019-04-30T05:20:19.994Z,0.20
2019-04-30T05:22:49.858Z,0.30
2019-04-30T05:25:19.467Z,0.30
2019-04-30T05:27:49.050Z,0.30
2019-04-30T05:30:19.882Z,0.30
2019-04-30T05:32:50.874Z,0.30
2019-04-30T05:35:20.576Z,0.30
2019-04-30T05:37:50.210Z,0.20
2019-04-30T05:40:19.801Z,0.10
2019-04-30T05:42:49.734Z,0.27
2019-04-30T05:45:19.810Z,0.20
2019-04-30T05:47:50.544Z,0.17
2019-04-30T05:50:20.495Z,0.10
2019-04-30T05:52:50.113Z,0.30
2019-04-30T05:55:19.989Z,0.27
2019-04-30T05:57:55.999Z,0.30
2019-04-30T06:00:21.315Z,0.20
2019-04-30T06:02:51.013Z,0.30
2019-04-30T06:05:20.676Z,0.27
2019-04-30T06:07:52.094Z,0.40
2019-04-30T06:10:24.314Z,0.20
2019-04-30T06:12:55.585Z,0.30
2019-04-30T06:15:28.971Z,0.20
2019-04-30T06:18:02.887Z,0.23
2019-04-30T06:20:29.894Z,0.20
2019-04-30T06:23:00.226Z,0.30
2019-04-30T06:25:37.340Z,0.20
2019-04-30T06:28:01.989Z,0.20
2019-04-30T06:30:32.489Z,0.20
2019-04-30T06:33:03.130Z,0.30
2019-04-30T06:35:33.164Z,0.40
2019-04-30T06:38:03.011Z,0.30
2019-04-30T06:40:32.676Z,0.43
2019-04-30T06:43:02.508Z,0.30
2019-04-30T06:45:34.551Z,0.20
2019-04-30T06:48:05.778Z,0.30
2019-04-30T06:50:35.476Z,0.40
2019-04-30T06:53:05.177Z,0.30
2019-04-30T06:55:34.902Z,0.23
2019-04-30T06:58:14.211Z,0.70
2019-04-30T07:00:39.954Z,0.47
2019-04-30T07:03:10.078Z,0.50
2019-04-30T07:05:39.744Z,0.20
2019-04-30T07:08:38.966Z,0.10
2019-04-30T07:11:16.208Z,0.20
2019-04-30T07:13:51.773Z,0.20
2019-04-30T07:16:19.138Z,0.40
2019-04-30T07:18:48.954Z,0.40
2019-04-30T07:21:19.894Z,0.40
2019-04-30T07:23:49.647Z,0.30
2019-04-30T07:26:24.247Z,0.20
2019-04-30T07:28:54.919Z,0.50
2019-04-30T07:31:21.999Z,0.50
2019-04-30T07:33:53.984Z,0.37
2019-04-30T07:36:23.038Z,0.50
2019-04-30T07:38:56.334Z,0.50
2019-04-30T07:41:23.987Z,0.67
2019-04-30T07:43:53.621Z,0.70
2019-04-30T07:46:23.226Z,0.70
2019-04-30T07:48:52.927Z,0.73
2019-04-30T07:51:23.203Z,0.60
2019-04-30T07:53:53.335Z,0.60
2019-04-30T07:56:27.859Z,0.60
2019-04-30T07:58:54.286Z,0.80
2019-04-30T08:01:23.881Z,1.20
2019-04-30T08:03:55.148Z,0.47
2019-04-30T08:06:24.926Z,0.37
2019-04-30T08:08:57.467Z,0.40
2019-04-30T08:11:26.537Z,0.20
2019-04-30T08:13:56.438Z,0.20
2019-04-30T08:16:28.753Z,0.30
2019-04-30T08:18:59.168Z,0.53
2019-04-30T08:21:28.945Z,0.63
2019-04-30T08:23:59.302Z,0.47
2019-04-30T08:26:29.813Z,0.90
2019-04-30T08:28:59.894Z,0.70
2019-04-30T08:31:29.544Z,0.40
2019-04-30T08:33:59.310Z,0.43
2019-04-30T08:36:29.813Z,0.40
2019-04-30T08:38:59.823Z,0.50
2019-04-30T08:41:29.630Z,0.30
2019-04-30T08:43:59.759Z,0.30
2019-04-30T08:46:29.633Z,0.40
2019-04-30T08:48:59.240Z,0.30
2019-04-30T08:51:31.040Z,0.20
2019-04-30T08:54:01.105Z,0.20
2019-04-30T08:56:30.729Z,0.40
2019-04-30T08:59:00.341Z,0.50
2019-04-30T09:01:30.007Z,0.47
2019-04-30T09:03:59.933Z,0.40
2019-04-30T09:06:30.349Z,0.50
2019-04-30T09:09:00.709Z,0.30
2019-04-30T09:11:38.575Z,0.43
2019-04-30T09:14:01.654Z,0.33
2019-04-30T09:16:31.267Z,0.60
2019-04-30T09:19:00.888Z,0.50
2019-04-30T09:21:30.478Z,0.77
2019-04-30T09:24:00.093Z,0.70
2019-04-30T09:26:29.721Z,0.70
2019-04-30T09:28:59.566Z,0.53
2019-04-30T09:31:29.745Z,0.50
2019-04-30T09:34:01.028Z,0.57
2019-04-30T09:36:30.762Z,0.60
2019-04-30T09:39:01.480Z,0.50
2019-04-30T09:41:31.364Z,1.17
2019-04-30T09:44:00.960Z,1.30
2019-04-30T09:46:30.586Z,0.83
2019-04-30T09:49:00.178Z,0.83
2019-04-30T09:51:30.917Z,1.17
2019-04-30T09:54:03.593Z,1.60
2019-04-30T09:56:32.174Z,1.93
2019-04-30T09:59:01.778Z,1.37
2019-04-30T10:01:32.910Z,1.13
2019-04-30T10:04:03.112Z,0.70
2019-04-30T10:06:39.783Z,0.50
2019-04-30T10:09:06.726Z,0.70
2019-04-30T10:11:43.965Z,0.50
2019-04-30T10:14:13.593Z,0.47
2019-04-30T10:17:00.786Z,0.60
2019-04-30T10:19:30.429Z,0.63
2019-04-30T10:22:00.134Z,1.13
2019-04-30T10:24:29.933Z,1.17
2019-04-30T10:27:02.440Z,0.60
2019-04-30T10:29:32.575Z,0.40
2019-04-30T10:32:02.205Z,0.60
2019-04-30T10:34:32.086Z,1.00
2019-04-30T10:37:02.958Z,0.80
2019-04-30T10:39:32.876Z,0.63
2019-04-30T10:42:02.839Z,0.70
2019-04-30T10:44:32.504Z,0.70
2019-04-30T10:47:02.139Z,0.70
2019-04-30T10:49:31.832Z,0.40
2019-04-30T10:52:01.433Z,0.70
2019-04-30T10:54:31.129Z,1.60
2019-04-30T10:57:00.791Z,0.83
2019-04-30T10:59:30.497Z,0.73
2019-04-30T11:02:00.163Z,0.60
2019-04-30T11:04:29.909Z,0.53
2019-04-30T11:07:00.549Z,0.57
2019-04-30T11:09:31.129Z,0.50
2019-04-30T11:12:03.046Z,0.63
2019-04-30T11:14:32.589Z,0.70
2019-04-30T11:17:02.537Z,0.53
2019-04-30T11:19:32.553Z,0.53
2019-04-30T11:22:02.613Z,0.70
2019-04-30T11:24:38.011Z,0.50
2019-04-30T11:27:04.219Z,0.90
2019-04-30T11:29:34.255Z,0.90
2019-04-30T11:32:06.055Z,0.80
2019-04-30T11:34:35.737Z,0.80
2019-04-30T11:37:05.397Z,1.07
2019-04-30T11:39:35.059Z,0.73
2019-04-30T11:42:05.094Z,0.47
2019-04-30T11:44:34.781Z,0.80
2019-04-30T11:47:24.906Z,0.80
2019-04-30T11:49:54.644Z,0.50
2019-04-30T11:52:24.506Z,0.60
2019-04-30T11:54:54.806Z,0.70
2019-04-30T11:57:24.731Z,0.70
2019-04-30T11:59:54.386Z,0.53
2019-04-30T12:02:32.163Z,0.70
2019-04-30T12:05:01.759Z,0.60
2019-04-30T12:07:35.442Z,0.40
2019-04-30T12:10:09.399Z,0.50
2019-04-30T12:12:39.194Z,0.60
2019-04-30T12:15:09.451Z,1.07
2019-04-30T12:17:39.123Z,1.43
2019-04-30T12:20:13.097Z,1.17
2019-04-30T12:22:42.731Z,1.00
2019-04-30T12:25:12.596Z,0.77
2019-04-30T12:27:42.190Z,0.73
2019-04-30T12:30:14.073Z,1.93
2019-04-30T12:32:43.670Z,0.80
2019-04-30T12:35:14.106Z,0.80
2019-04-30T12:37:43.698Z,0.63
2019-04-30T12:40:26.660Z,0.80
2019-04-30T12:42:45.890Z,0.50
2019-04-30T12:45:15.827Z,0.53
2019-04-30T12:47:49.843Z,0.30
2019-04-30T12:50:21.277Z,0.50
2019-04-30T12:52:52.526Z,0.30
2019-04-30T12:55:29.475Z,0.40
2019-04-30T12:58:01.617Z,0.73
2019-04-30T13:00:31.915Z,0.37
2019-04-30T13:03:01.546Z,0.63
2019-04-30T13:05:31.176Z,0.50
2019-04-30T13:08:01.361Z,0.40
2019-04-30T13:10:32.151Z,0.40
2019-04-30T13:13:02.496Z,0.53
2019-04-30T13:15:32.182Z,0.40
2019-04-30T13:18:01.774Z,0.40
2019-04-30T13:20:31.557Z,0.60
2019-04-30T13:23:01.239Z,0.90
2019-04-30T13:25:35.392Z,0.73
2019-04-30T13:28:03.778Z,0.70
2019-04-30T13:30:33.545Z,1.20
2019-04-30T13:33:13.546Z,1.10
2019-04-30T13:35:43.140Z,0.60
2019-04-30T13:38:23.331Z,0.80
2019-04-30T13:40:54.560Z,0.67
2019-04-30T13:43:25.808Z,0.60
2019-04-30T13:45:55.442Z,0.40
2019-04-30T13:48:25.031Z,0.50
2019-04-30T13:50:54.661Z,0.60
2019-04-30T13:53:24.290Z,0.63
2019-04-30T13:55:53.930Z,0.90
2019-04-30T13:58:23.522Z,1.00
2019-04-30T14:00:53.151Z,0.80
2019-04-30T14:03:24.383Z,1.00
2019-04-30T14:05:54.017Z,2.07
2019-04-30T14:08:28.983Z,1.50
2019-04-30T14:10:59.184Z,2.50
2019-04-30T14:13:28.950Z,0.70
2019-04-30T14:15:58.714Z,1.20
2019-04-30T14:18:33.783Z,1.30
2019-04-30T14:21:01.028Z,0.90
2019-04-30T14:23:30.706Z,1.00
2019-04-30T14:26:01.137Z,1.13
2019-04-30T14:28:30.915Z,1.00
2019-04-30T14:31:00.574Z,0.63
2019-04-30T14:33:30.168Z,0.93
2019-04-30T14:36:00.834Z,0.90
2019-04-30T14:38:30.613Z,0.90
2019-04-30T14:41:01.203Z,1.20
2019-04-30T14:43:33.606Z,1.00
2019-04-30T14:46:21.689Z,0.97
2019-04-30T14:48:53.819Z,1.70
2019-04-30T14:51:24.164Z,2.97
2019-04-30T14:54:00.995Z,1.13
2019-04-30T14:56:39.429Z,1.80
2019-04-30T14:59:28.813Z,1.70
2019-04-30T15:02:05.547Z,1.37
2019-04-30T15:04:35.180Z,2.73
2019-04-30T15:07:04.842Z,2.80
2019-04-30T15:09:34.555Z,2.83
2019-04-30T15:12:04.652Z,2.00
2019-04-30T15:14:34.261Z,2.30
2019-04-30T15:17:03.884Z,2.53
2019-04-30T15:19:33.478Z,3.53
2019-04-30T15:22:04.020Z,3.30
2019-04-30T15:24:39.277Z,3.30
2019-04-30T15:27:09.381Z,3.40
2019-04-30T15:29:39.320Z,2.70
2019-04-30T15:32:08.971Z,5.87
2019-04-30T15:34:40.842Z,4.10
2019-04-30T15:37:19.044Z,3.67
2019-04-30T15:39:41.483Z,5.80
2019-04-30T15:42:11.692Z,5.70
2019-04-30T15:44:45.237Z,5.47
2019-04-30T15:47:13.036Z,4.40
2019-04-30T15:49:42.754Z,5.90
2019-04-30T15:52:12.418Z,5.30
2019-04-30T15:54:42.051Z,5.47
2019-04-30T15:57:11.714Z,6.73
2019-04-30T15:59:41.718Z,7.33
2019-04-30T16:02:14.441Z,7.30
2019-04-30T16:05:01.541Z,7.40
2019-04-30T16:07:31.131Z,6.43
2019-04-30T16:10:12.600Z,8.23
2019-04-30T16:12:48.608Z,5.93
2019-04-30T16:15:19.188Z,7.00
2019-04-30T16:17:50.422Z,6.97
2019-04-30T16:20:20.135Z,6.60
2019-04-30T16:22:49.730Z,7.00
2019-04-30T16:25:19.507Z,7.83
2019-04-30T16:27:49.412Z,7.30
2019-04-30T16:30:19.615Z,7.40
2019-04-30T16:32:50.722Z,7.57
2019-04-30T16:35:20.434Z,7.50
2019-04-30T16:37:50.116Z,6.80
2019-04-30T16:40:21.362Z,7.10
2019-04-30T16:42:50.970Z,8.13
2019-04-30T16:45:20.672Z,7.37
2019-04-30T16:47:50.274Z,8.20
2019-04-30T16:50:20.406Z,8.10
2019-04-30T16:52:50.012Z,8.47
2019-04-30T16:55:19.658Z,7.83
2019-04-30T16:57:50.189Z,7.47
2019-04-30T17:00:20.853Z,8.30
2019-04-30T17:02:57.671Z,7.77
2019-04-30T17:05:48.018Z,7.93
2019-04-30T17:08:20.452Z,7.83
2019-04-30T17:10:54.395Z,8.60
2019-04-30T17:13:25.672Z,8.47
2019-04-30T17:16:12.024Z,9.07
2019-04-30T17:18:41.958Z,8.73
2019-04-30T17:21:11.551Z,8.10
2019-04-30T17:23:41.152Z,8.27
2019-04-30T17:26:10.855Z,8.10
2019-04-30T17:28:40.479Z,7.43
2019-04-30T17:31:10.093Z,7.80
2019-04-30T17:33:39.699Z,7.30
2019-04-30T17:36:11.113Z,8.23
2019-04-30T17:38:40.875Z,7.90
2019-04-30T17:41:10.546Z,9.50
2019-04-30T17:43:41.827Z,7.87
2019-04-30T17:46:11.458Z,8.10
2019-04-30T17:48:41.062Z,8.17
2019-04-30T17:51:10.688Z,8.07
2019-04-30T17:53:41.996Z,7.80
2019-04-30T17:56:11.632Z,9.57
2019-04-30T17:58:41.262Z,9.10
2019-04-30T18:01:11.272Z,8.70
2019-04-30T18:03:40.907Z,8.03
2019-04-30T18:06:10.576Z,10.13
2019-04-30T18:08:40.211Z,9.23
2019-04-30T18:11:09.888Z,9.63
2019-04-30T18:13:39.646Z,11.23
2019-04-30T18:16:09.585Z,13.97
2019-04-30T18:18:46.577Z,11.03
2019-04-30T18:21:31.130Z,11.53
2019-04-30T18:24:11.080Z,12.50
2019-04-30T18:26:51.127Z,14.87
2019-04-30T18:29:21.030Z,15.40
2019-04-30T18:31:50.885Z,14.03
2019-04-30T18:34:20.741Z,10.87
2019-04-30T18:36:51.212Z,9.50
2019-04-30T18:39:21.085Z,11.30
2019-04-30T18:41:50.969Z,14.10
2019-04-30T18:44:20.967Z,12.33
2019-04-30T18:46:50.583Z,11.50
2019-04-30T18:49:20.357Z,11.90
2019-04-30T18:51:50.239Z,9.90
2019-04-30T18:54:20.940Z,9.93
2019-04-30T18:56:50.817Z,9.17
2019-04-30T18:59:20.737Z,9.10
2019-04-30T19:01:50.577Z,9.30
2019-04-30T19:04:20.435Z,8.60
2019-04-30T19:06:51.957Z,8.57
2019-04-30T19:09:32.546Z,9.57
2019-04-30T19:12:06.370Z,8.77
2019-04-30T19:14:45.314Z,8.50
2019-04-30T19:17:22.733Z,8.30
2019-04-30T19:20:10.695Z,7.67
2019-04-30T19:22:40.568Z,8.00
2019-04-30T19:25:12.370Z,8.03
2019-04-30T19:27:42.569Z,7.80
2019-04-30T19:30:12.849Z,7.77
2019-04-30T19:32:42.679Z,7.73
2019-04-30T19:35:12.932Z,7.90
2019-04-30T19:37:42.599Z,7.30
2019-04-30T19:40:12.677Z,7.17
2019-04-30T19:42:42.278Z,7.20
2019-04-30T19:45:12.714Z,7.63
2019-04-30T19:47:42.436Z,7.43
2019-04-30T19:50:14.101Z,7.53
2019-04-30T19:52:44.156Z,7.57
2019-04-30T19:55:14.061Z,6.93
2019-04-30T19:57:43.661Z,7.50
2019-04-30T20:00:14.603Z,6.50
2019-04-30T20:02:44.263Z,7.70
2019-04-30T20:05:14.207Z,7.87
2019-04-30T20:07:43.819Z,7.63
2019-04-30T20:10:13.860Z,7.00
2019-04-30T20:12:43.491Z,6.50
2019-04-30T20:15:19.025Z,7.60
2019-04-30T20:17:45.331Z,7.30
2019-04-30T20:20:15.235Z,6.90
2019-04-30T20:22:44.870Z,7.20
2019-04-30T20:25:14.600Z,8.60
2019-04-30T20:27:44.231Z,9.23
2019-04-30T20:30:14.331Z,9.77
2019-04-30T20:32:43.967Z,9.40
2019-04-30T20:35:13.563Z,9.00
2019-04-30T20:38:00.531Z,8.67
2019-04-30T20:40:43.027Z,8.77
2019-04-30T20:43:03.131Z,9.17
2019-04-30T20:45:32.795Z,9.17
2019-04-30T20:48:02.430Z,9.40
2019-04-30T20:50:32.063Z,8.33
2019-04-30T20:53:01.666Z,8.17
2019-04-30T20:55:31.295Z,8.23
2019-04-30T20:58:00.898Z,7.20
2019-04-30T21:00:30.508Z,7.60
2019-04-30T21:03:00.116Z,7.43
2019-04-30T21:05:29.836Z,7.47
2019-04-30T21:07:59.594Z,7.57
2019-04-30T21:10:29.837Z,7.30
2019-04-30T21:12:59.507Z,7.10
2019-04-30T21:15:29.745Z,7.17
2019-04-30T21:17:59.459Z,6.73
2019-04-30T21:20:29.141Z,7.03
2019-04-30T21:22:59.692Z,6.50
2019-04-30T21:25:29.417Z,7.03
2019-04-30T21:27:59.915Z,6.77
2019-04-30T21:30:29.755Z,6.87
2019-04-30T21:33:01.578Z,6.63
2019-04-30T21:35:44.357Z,6.67
2019-04-30T21:38:13.998Z,6.57
2019-04-30T21:40:43.601Z,6.30
2019-04-30T21:43:13.182Z,5.87
2019-04-30T21:45:42.884Z,6.20
2019-04-30T21:48:12.626Z,6.17
2019-04-30T21:50:42.239Z,5.93
2019-04-30T21:53:11.879Z,6.00
2019-04-30T21:55:41.477Z,5.87
2019-04-30T21:58:11.073Z,6.03
2019-04-30T22:00:40.475Z,5.97
2019-04-30T22:03:10.222Z,5.40
2019-04-30T22:05:39.890Z,5.83
2019-04-30T22:08:09.518Z,6.10
2019-04-30T22:10:39.145Z,5.00
2019-04-30T22:13:08.995Z,5.30
2019-04-30T22:15:38.619Z,5.03
2019-04-30T22:18:08.251Z,5.03
2019-04-30T22:20:38.879Z,4.97
2019-04-30T22:23:08.663Z,5.27
2019-04-30T22:25:39.247Z,5.20
2019-04-30T22:28:09.029Z,5.67
2019-04-30T22:30:38.698Z,4.80
2019-04-30T22:33:08.913Z,5.67
2019-04-30T22:35:42.416Z,5.90
2019-04-30T22:38:13.655Z,5.60
2019-04-30T22:40:43.282Z,5.10
2019-04-30T22:43:12.970Z,4.83
2019-04-30T22:45:50.222Z,5.00
2019-04-30T22:48:19.853Z,5.20
2019-04-30T22:50:49.512Z,4.70
2019-04-30T22:53:19.128Z,4.93
2019-04-30T22:55:48.780Z,4.80
2019-04-30T22:58:18.414Z,4.97
2019-04-30T23:00:48.244Z,4.87
2019-04-30T23:03:19.537Z,4.30
2019-04-30T23:05:49.236Z,4.43
2019-04-30T23:08:18.890Z,4.90
2019-04-30T23:10:48.644Z,4.73
2019-04-30T23:13:18.943Z,4.87
2019-04-30T23:15:52.447Z,4.67
2019-04-30T23:18:22.087Z,4.50
2019-04-30T23:20:52.079Z,4.27
2019-04-30T23:23:21.737Z,3.90
2019-04-30T23:25:51.358Z,3.83
2019-04-30T23:28:20.994Z,4.20
2019-04-30T23:30:50.766Z,4.33
2019-04-30T23:33:20.357Z,4.50
2019-04-30T23:35:50.101Z,3.90
2019-04-30T23:38:19.686Z,3.80
2019-04-30T23:40:53.261Z,4.00
2019-04-30T23:43:23.215Z,4.30
2019-04-30T23:45:52.932Z,5.13
2019-04-30T23:48:22.521Z,5.83
2019-04-30T23:50:52.158Z,4.43
2019-04-30T23:53:21.738Z,4.43
2019-04-30T23:55:51.375Z,4.97
2019-04-30T23:58:21.013Z,4.43
